Time;durP1;ratioP1;P1;durP2;ratioP2;P2;SDS_P1;SDS_P2;PMS_P1;PMS_P2;Temp;Humidity;BMP_temperature;BMP_pressure;BME280_temperature;BME280_humidity;BME280_pressure;Samples;Min_cycle;Max_cycle;Signal;HPM_P1;HPM_P2
2024/03/23 00:00:13;;;;;;;;;;;22.80;50.10;;;;;;5071781;28;19930;-43
2024/03/23 00:02:39;;;;;;;;;;;22.80;50.10;;;;;;5079281;28;19915;-43
2024/03/23 00:05:06;;;;;;;;;;;22.70;50.10;;;;;;5080844;28;19921;-42
2024/03/23 00:07:32;;;;;;;;;;;22.70;50.10;;;;;;5072675;28;19967;-46
2024/03/23 00:09:58;;;;;;;;;;;22.80;50.10;;;;;;5070589;28;20016;-42
2024/03/23 00:12:25;;;;;;;;;;;22.80;50.10;;;;;;5077269;28;19920;-45
2024/03/23 00:14:52;;;;;;;;;;;22.80;50.10;;;;;;5082745;28;19920;-43
2024/03/23 00:17:18;;;;;;;;;;;22.80;50.10;;;;;;5081721;28;19913;-42
2024/03/23 00:19:44;;;;;;;;;;;22.80;50.20;;;;;;5075732;28;19919;-43
2024/03/23 00:22:11;;;;;;;;;;;22.80;50.20;;;;;;5073813;28;19915;-44
2024/03/23 00:24:37;;;;;;;;;;;22.70;50.10;;;;;;5078010;28;19946;-44
2024/03/23 00:27:04;;;;;;;;;;;22.70;50.20;;;;;;5084268;28;19909;-44
2024/03/23 00:29:31;;;;;;;;;;;22.80;50.30;;;;;;5082741;28;19967;-44
2024/03/23 00:31:57;;;;;;;;;;;22.80;50.20;;;;;;5077838;28;19913;-42
2024/03/23 00:34:23;;;;;;;;;;;22.80;50.20;;;;;;5077026;28;19920;-44
2024/03/23 00:36:50;;;;;;;;;;;22.80;50.20;;;;;;5078166;28;19935;-43
2024/03/23 00:39:16;;;;;;;;;;;22.80;50.30;;;;;;5080523;28;19920;-43
2024/03/23 00:41:42;;;;;;;;;;;22.80;50.30;;;;;;5082807;28;19919;-42
2024/03/23 00:44:09;;;;;;;;;;;22.70;50.20;;;;;;5083599;28;19986;-42
2024/03/23 00:46:35;;;;;;;;;;;22.70;50.20;;;;;;5068021;28;19916;-43
2024/03/23 00:49:01;;;;;;;;;;;22.70;50.20;;;;;;5083242;28;19913;-43
2024/03/23 00:51:28;;;;;;;;;;;22.80;50.30;;;;;;5082891;28;19919;-44
2024/03/23 00:53:54;;;;;;;;;;;22.80;50.30;;;;;;5082591;28;19920;-43
2024/03/23 00:56:19;;;;;;;;;;;22.80;50.30;;;;;;5080105;28;19935;-43
2024/03/23 00:58:45;;;;;;;;;;;22.80;50.30;;;;;;5080694;28;19908;-45
2024/03/23 01:01:14;;;;;;;;;;;22.80;50.30;;;;;;5073470;28;20528;-48
2024/03/23 01:03:43;;;;;;;;;;;22.70;50.20;;;;;;5081517;28;19912;-43
2024/03/23 01:06:09;;;;;;;;;;;22.70;50.30;;;;;;5081768;28;19919;-43
2024/03/23 01:08:35;;;;;;;;;;;22.70;50.40;;;;;;5082042;28;19916;-44
2024/03/23 01:11:02;;;;;;;;;;;22.70;50.40;;;;;;5072647;28;19915;-42
2024/03/23 01:13:31;;;;;;;;;;;22.80;50.40;;;;;;5073294;28;19918;-43
2024/03/23 01:15:57;;;;;;;;;;;22.80;50.30;;;;;;5080577;28;19942;-45
2024/03/23 01:18:23;;;;;;;;;;;22.80;50.40;;;;;;5082623;28;19919;-48
2024/03/23 01:20:50;;;;;;;;;;;22.70;50.40;;;;;;5075310;28;19910;-47
2024/03/23 01:23:16;;;;;;;;;;;22.70;50.40;;;;;;5078976;28;19912;-43
2024/03/23 01:25:51;;;;;;;;;;;22.70;50.40;;;;;;5070741;28;19972;-47
2024/03/23 01:28:17;;;;;;;;;;;22.70;50.40;;;;;;5086889;28;19919;-47
2024/03/23 01:30:43;;;;;;;;;;;22.70;50.50;;;;;;5082516;28;19927;-44
2024/03/23 01:33:10;;;;;;;;;;;22.80;50.50;;;;;;5077618;28;19991;-43
2024/03/23 01:35:38;;;;;;;;;;;22.80;50.50;;;;;;5081341;28;19920;-48
2024/03/23 01:38:14;;;;;;;;;;;22.80;50.40;;;;;;5066070;28;19935;-42
2024/03/23 01:40:40;;;;;;;;;;;22.70;50.40;;;;;;5073812;28;19935;-42
2024/03/23 01:43:08;;;;;;;;;;;22.70;50.50;;;;;;5082944;28;19962;-45
2024/03/23 01:45:35;;;;;;;;;;;22.70;50.50;;;;;;5079328;28;19920;-44
2024/03/23 01:48:02;;;;;;;;;;;22.70;50.70;;;;;;5076354;28;19908;-48
2024/03/23 01:50:28;;;;;;;;;;;22.70;50.50;;;;;;5075561;28;19916;-48
2024/03/23 01:52:57;;;;;;;;;;;22.80;50.50;;;;;;5076330;28;19912;-46
2024/03/23 01:55:23;;;;;;;;;;;22.80;50.50;;;;;;5077858;28;19916;-45
2024/03/23 01:57:50;;;;;;;;;;;22.80;50.50;;;;;;5074658;28;19955;-45
2024/03/23 02:00:16;;;;;;;;;;;22.70;50.50;;;;;;5080941;28;19912;-46
2024/03/23 02:02:46;;;;;;;;;;;22.70;50.60;;;;;;5079896;28;20773;-41
2024/03/23 02:05:12;;;;;;;;;;;22.70;50.50;;;;;;5082934;28;19919;-45
2024/03/23 02:07:39;;;;;;;;;;;22.70;50.50;;;;;;5080765;28;20372;-45
2024/03/23 02:10:14;;;;;;;;;;;22.70;50.60;;;;;;5076129;28;19912;-43
2024/03/23 02:12:41;;;;;;;;;;;22.70;50.60;;;;;;5080754;28;19912;-44
2024/03/23 02:15:10;;;;;;;;;;;22.80;50.60;;;;;;5081699;28;20022;-42
2024/03/23 02:17:36;;;;;;;;;;;22.70;50.50;;;;;;5079178;28;19916;-44
2024/03/23 02:20:06;;;;;;;;;;;22.70;50.60;;;;;;5068902;28;19919;-43
2024/03/23 02:22:41;;;;;;;;;;;22.70;50.60;;;;;;5081112;28;19971;-44
2024/03/23 02:25:07;;;;;;;;;;;22.70;50.60;;;;;;5074824;28;19972;-44
2024/03/23 02:27:35;;;;;;;;;;;22.70;50.60;;;;;;5080961;28;20656;-45
2024/03/23 02:30:10;;;;;;;;;;;22.70;50.70;;;;;;5075878;28;19976;-48
2024/03/23 02:32:36;;;;;;;;;;;22.80;50.60;;;;;;5072999;28;19916;-48
2024/03/23 02:35:05;;;;;;;;;;;22.80;50.70;;;;;;5082322;28;20554;-46
2024/03/23 02:37:32;;;;;;;;;;;22.80;50.70;;;;;;5080255;28;19915;-46
2024/03/23 02:39:58;;;;;;;;;;;22.80;50.80;;;;;;5080116;28;19913;-50
2024/03/23 02:42:27;;;;;;;;;;;22.70;50.70;;;;;;5074498;28;19913;-49
2024/03/23 02:44:54;;;;;;;;;;;22.70;50.60;;;;;;5071200;28;19921;-43
2024/03/23 02:47:21;;;;;;;;;;;22.70;50.60;;;;;;5082006;28;19935;-44
2024/03/23 02:49:47;;;;;;;;;;;22.70;50.70;;;;;;5074920;28;19986;-49
2024/03/23 02:52:13;;;;;;;;;;;22.70;50.70;;;;;;5082883;28;20315;-46
2024/03/23 02:54:42;;;;;;;;;;;22.80;50.80;;;;;;5068107;28;20653;-51
2024/03/23 02:57:08;;;;;;;;;;;22.80;50.70;;;;;;5063949;28;19919;-43
2024/03/23 02:59:34;;;;;;;;;;;22.80;51.30;;;;;;5064181;28;19934;-49
2024/03/23 03:02:01;;;;;;;;;;;22.70;50.70;;;;;;5068689;28;19908;-45
2024/03/23 03:04:27;;;;;;;;;;;22.70;50.70;;;;;;5067068;28;19984;-45
2024/03/23 03:06:54;;;;;;;;;;;22.70;50.70;;;;;;5082732;28;19908;-43
2024/03/23 03:09:21;;;;;;;;;;;22.70;50.80;;;;;;5074853;28;19912;-45
2024/03/23 03:11:47;;;;;;;;;;;22.70;50.90;;;;;;5072183;28;19924;-43
2024/03/23 03:14:13;;;;;;;;;;;22.80;50.90;;;;;;5063923;28;19917;-46
2024/03/23 03:16:39;;;;;;;;;;;22.80;50.80;;;;;;5066948;28;20366;-46
2024/03/23 03:19:06;;;;;;;;;;;22.80;50.80;;;;;;5073386;28;19913;-48
2024/03/23 03:21:32;;;;;;;;;;;22.80;50.80;;;;;;5063794;28;19935;-46
2024/03/23 03:24:01;;;;;;;;;;;22.80;50.90;;;;;;5076442;28;19912;-46
2024/03/23 03:26:28;;;;;;;;;;;22.70;50.80;;;;;;5067083;28;19909;-47
2024/03/23 03:28:56;;;;;;;;;;;22.70;50.90;;;;;;5074221;28;19920;-43
2024/03/23 03:31:22;;;;;;;;;;;22.70;50.90;;;;;;5074074;28;19934;-45
2024/03/23 03:33:50;;;;;;;;;;;22.70;50.80;;;;;;5063906;28;19916;-45
2024/03/23 03:36:16;;;;;;;;;;;22.80;50.90;;;;;;5062930;28;19912;-44
2024/03/23 03:38:43;;;;;;;;;;;22.80;50.90;;;;;;5066467;28;19913;-42
2024/03/23 03:41:09;;;;;;;;;;;22.80;50.90;;;;;;5066664;28;19967;-43
2024/03/23 03:43:35;;;;;;;;;;;22.80;50.90;;;;;;5064415;28;19917;-42
2024/03/23 03:46:02;;;;;;;;;;;22.70;50.90;;;;;;5081416;28;19982;-47
2024/03/23 03:48:28;;;;;;;;;;;22.70;50.90;;;;;;5073833;28;20269;-44
2024/03/23 03:50:55;;;;;;;;;;;22.70;50.90;;;;;;5067214;28;19909;-46
2024/03/23 03:53:21;;;;;;;;;;;22.70;50.90;;;;;;5072840;28;19919;-47
2024/03/23 03:55:48;;;;;;;;;;;22.80;51.00;;;;;;5070189;28;19917;-45
2024/03/23 03:58:14;;;;;;;;;;;22.80;50.90;;;;;;5066702;28;19909;-42
2024/03/23 04:00:40;;;;;;;;;;;22.80;50.90;;;;;;5066625;28;19913;-42
2024/03/23 04:03:07;;;;;;;;;;;22.80;50.90;;;;;;5073438;28;19927;-43
2024/03/23 04:05:33;;;;;;;;;;;22.70;51.00;;;;;;5067342;28;19943;-43
2024/03/23 04:07:58;;;;;;;;;;;22.70;50.90;;;;;;5076630;28;19976;-42
2024/03/23 04:10:25;;;;;;;;;;;22.70;51.00;;;;;;5071133;28;19915;-42
2024/03/23 04:12:51;;;;;;;;;;;22.70;50.90;;;;;;5069810;28;19913;-42
2024/03/23 04:15:17;;;;;;;;;;;22.70;51.00;;;;;;5077431;28;19920;-44
2024/03/23 04:17:43;;;;;;;;;;;22.80;51.10;;;;;;5067947;28;19939;-44
2024/03/23 04:20:11;;;;;;;;;;;22.80;51.00;;;;;;5070951;28;19951;-42
2024/03/23 04:22:37;;;;;;;;;;;22.80;51.00;;;;;;5074687;28;19915;-43
2024/03/23 04:25:12;;;;;;;;;;;22.80;51.10;;;;;;5074898;28;19917;-44
2024/03/23 04:27:38;;;;;;;;;;;22.70;51.00;;;;;;5064823;28;20459;-42
2024/03/23 04:30:09;;;;;;;;;;;22.70;51.00;;;;;;5066295;28;19951;-43
2024/03/23 04:32:35;;;;;;;;;;;22.70;51.00;;;;;;5074878;28;19981;-46
2024/03/23 04:35:03;;;;;;;;;;;22.70;51.00;;;;;;5079434;28;19942;-42
2024/03/23 04:37:28;;;;;;;;;;;22.70;51.10;;;;;;5076161;28;19908;-42
2024/03/23 04:39:54;;;;;;;;;;;22.70;51.00;;;;;;5069866;28;19930;-42
2024/03/23 04:42:20;;;;;;;;;;;22.80;51.10;;;;;;5083829;28;19920;-42
2024/03/23 04:44:46;;;;;;;;;;;22.80;51.10;;;;;;5073010;28;19931;-42
2024/03/23 04:47:12;;;;;;;;;;;22.70;51.00;;;;;;5078633;28;19939;-42
2024/03/23 04:49:38;;;;;;;;;;;22.70;51.10;;;;;;5076269;28;19984;-45
2024/03/23 04:52:04;;;;;;;;;;;22.70;51.10;;;;;;5086652;28;19931;-45
2024/03/23 04:54:32;;;;;;;;;;;22.70;51.00;;;;;;5079288;28;19956;-45
2024/03/23 04:56:58;;;;;;;;;;;22.70;51.20;;;;;;5080426;28;19969;-45
2024/03/23 04:59:24;;;;;;;;;;;22.70;51.10;;;;;;5065583;28;19912;-46
2024/03/23 05:01:50;;;;;;;;;;;22.80;51.10;;;;;;5069077;28;19932;-44
2024/03/23 05:04:15;;;;;;;;;;;22.80;51.10;;;;;;5070671;28;19963;-41
2024/03/23 05:06:41;;;;;;;;;;;22.80;51.20;;;;;;5068063;28;19939;-41
2024/03/23 05:09:11;;;;;;;;;;;22.70;51.20;;;;;;5076861;28;19912;-44
2024/03/23 05:11:39;;;;;;;;;;;22.70;51.70;;;;;;5076449;28;20054;-47
2024/03/23 05:14:06;;;;;;;;;;;22.70;51.10;;;;;;5072464;28;19950;-45
2024/03/23 05:16:32;;;;;;;;;;;22.70;51.10;;;;;;5073816;28;19920;-43
2024/03/23 05:18:58;;;;;;;;;;;22.70;51.20;;;;;;5073295;28;20361;-44
2024/03/23 05:21:23;;;;;;;;;;;22.70;51.20;;;;;;5067017;28;19959;-47
2024/03/23 05:23:49;;;;;;;;;;;22.80;51.20;;;;;;5074732;28;20003;-43
2024/03/23 05:26:15;;;;;;;;;;;22.80;51.20;;;;;;5066212;28;19913;-46
2024/03/23 05:28:41;;;;;;;;;;;22.80;51.20;;;;;;5072818;28;19913;-42
2024/03/23 05:31:08;;;;;;;;;;;22.70;51.20;;;;;;5091926;28;19918;-46
2024/03/23 05:33:36;;;;;;;;;;;22.70;51.20;;;;;;5084604;28;19912;-43
2024/03/23 05:36:03;;;;;;;;;;;22.70;51.20;;;;;;5072041;28;20019;-43
2024/03/23 05:38:29;;;;;;;;;;;22.70;51.20;;;;;;5065656;28;19944;-44
2024/03/23 05:40:58;;;;;;;;;;;22.70;51.30;;;;;;5076090;28;19915;-43
2024/03/23 05:43:24;;;;;;;;;;;22.80;51.30;;;;;;5075957;28;19912;-47
2024/03/23 05:45:53;;;;;;;;;;;22.80;51.20;;;;;;5068609;28;19948;-49
2024/03/23 05:48:19;;;;;;;;;;;22.80;51.30;;;;;;5075765;28;19916;-48
2024/03/23 05:50:45;;;;;;;;;;;22.70;51.20;;;;;;5073721;28;19948;-45
2024/03/23 05:53:12;;;;;;;;;;;22.70;51.20;;;;;;5077536;28;19934;-46
2024/03/23 05:55:38;;;;;;;;;;;22.70;51.20;;;;;;5076923;28;19916;-45
2024/03/23 05:58:05;;;;;;;;;;;22.70;51.20;;;;;;5075540;28;19945;-48
2024/03/23 06:00:30;;;;;;;;;;;22.70;51.30;;;;;;5075421;28;19912;-47
2024/03/23 06:02:57;;;;;;;;;;;22.70;51.30;;;;;;5065458;28;19924;-44
2024/03/23 06:05:23;;;;;;;;;;;22.80;51.30;;;;;;5065755;28;19913;-46
2024/03/23 06:07:49;;;;;;;;;;;22.80;51.30;;;;;;5071608;28;19916;-44
2024/03/23 06:10:15;;;;;;;;;;;22.70;51.30;;;;;;5065132;28;19912;-49
2024/03/23 06:12:41;;;;;;;;;;;22.70;51.30;;;;;;5064196;28;19956;-47
2024/03/23 06:15:10;;;;;;;;;;;22.70;51.30;;;;;;5068095;28;19923;-42
2024/03/23 06:17:36;;;;;;;;;;;22.70;51.30;;;;;;5071970;28;19912;-48
2024/03/23 06:20:02;;;;;;;;;;;22.70;51.30;;;;;;5068364;28;19919;-43
2024/03/23 06:22:28;;;;;;;;;;;22.70;51.40;;;;;;5076987;28;19908;-44
2024/03/23 06:24:54;;;;;;;;;;;22.70;51.30;;;;;;5079036;28;20003;-45
2024/03/23 06:27:20;;;;;;;;;;;22.80;51.30;;;;;;5068557;28;19913;-46
2024/03/23 06:29:46;;;;;;;;;;;22.80;51.30;;;;;;5074750;28;19931;-46
2024/03/23 06:32:12;;;;;;;;;;;22.70;51.30;;;;;;5071424;28;20003;-43
2024/03/23 06:34:37;;;;;;;;;;;22.70;51.40;;;;;;5073289;28;19920;-44
2024/03/23 06:37:03;;;;;;;;;;;22.70;51.40;;;;;;5075708;28;19931;-45
2024/03/23 06:39:29;;;;;;;;;;;22.70;51.30;;;;;;5076551;28;19919;-43
2024/03/23 06:41:56;;;;;;;;;;;22.60;51.30;;;;;;5072301;28;20013;-44
2024/03/23 06:44:22;;;;;;;;;;;22.70;51.40;;;;;;5070626;28;19973;-45
2024/03/23 06:46:49;;;;;;;;;;;22.70;51.40;;;;;;5080145;28;20605;-44
2024/03/23 06:49:15;;;;;;;;;;;22.80;52.00;;;;;;5071382;28;19920;-45
2024/03/23 06:51:41;;;;;;;;;;;22.80;51.40;;;;;;5078712;28;20063;-47
2024/03/23 06:54:07;;;;;;;;;;;22.70;51.40;;;;;;5078403;28;20011;-46
2024/03/23 06:56:33;;;;;;;;;;;22.70;51.50;;;;;;5071564;28;19912;-44
2024/03/23 06:58:59;;;;;;;;;;;22.70;51.50;;;;;;5063732;28;19952;-45
2024/03/23 07:01:25;;;;;;;;;;;22.70;51.40;;;;;;5070357;28;19913;-46
2024/03/23 07:03:50;;;;;;;;;;;22.60;51.40;;;;;;5074227;28;19919;-43
2024/03/23 07:06:16;;;;;;;;;;;22.70;51.40;;;;;;5067682;28;19930;-46
2024/03/23 07:08:42;;;;;;;;;;;22.70;51.50;;;;;;5071045;28;19930;-45
2024/03/23 07:11:08;;;;;;;;;;;22.80;51.50;;;;;;5075545;28;19912;-47
2024/03/23 07:13:34;;;;;;;;;;;22.70;51.40;;;;;;5072549;28;19999;-44
2024/03/23 07:16:00;;;;;;;;;;;22.70;51.50;;;;;;5067227;28;19916;-47
2024/03/23 07:18:26;;;;;;;;;;;22.70;51.40;;;;;;5073626;28;19912;-43
2024/03/23 07:20:56;;;;;;;;;;;22.70;51.50;;;;;;5071589;28;20625;-47
2024/03/23 07:23:22;;;;;;;;;;;22.70;51.40;;;;;;5073370;28;19912;-44
2024/03/23 07:25:57;;;;;;;;;;;22.70;51.60;;;;;;5075991;28;20361;-45
2024/03/23 07:28:23;;;;;;;;;;;22.70;51.60;;;;;;5080813;28;19912;-44
2024/03/23 07:30:48;;;;;;;;;;;22.80;51.50;;;;;;5079696;28;19909;-46
2024/03/23 07:33:14;;;;;;;;;;;22.80;51.50;;;;;;5073295;28;19913;-46
2024/03/23 07:35:40;;;;;;;;;;;22.80;51.50;;;;;;5078784;28;19927;-44
2024/03/23 07:38:06;;;;;;;;;;;22.70;51.50;;;;;;5069708;28;19923;-48
2024/03/23 07:40:32;;;;;;;;;;;22.70;51.50;;;;;;5070392;28;19926;-48
2024/03/23 07:42:58;;;;;;;;;;;22.70;51.50;;;;;;5063466;28;20450;-48
2024/03/23 07:45:24;;;;;;;;;;;22.70;51.40;;;;;;5063618;28;19920;-49
2024/03/23 07:47:49;;;;;;;;;;;22.70;52.20;;;;;;5071173;28;19912;-45
2024/03/23 07:50:15;;;;;;;;;;;22.70;51.60;;;;;;5067818;28;19976;-46
2024/03/23 07:52:41;;;;;;;;;;;22.80;51.50;;;;;;5078877;28;19920;-48
2024/03/23 07:55:07;;;;;;;;;;;22.80;51.50;;;;;;5068581;28;19931;-45
2024/03/23 07:57:33;;;;;;;;;;;22.80;51.50;;;;;;5080866;28;19913;-47
2024/03/23 08:00:19;;;;;;;;;;;22.70;51.50;;;;;;5070346;28;19919;-44
2024/03/23 08:02:45;;;;;;;;;;;22.70;51.60;;;;;;5078443;28;19918;-43
2024/03/23 08:05:11;;;;;;;;;;;22.70;51.50;;;;;;5079278;28;19966;-44
2024/03/23 08:07:37;;;;;;;;;;;22.70;51.50;;;;;;5079130;28;20029;-44
2024/03/23 08:10:03;;;;;;;;;;;22.70;51.50;;;;;;5078953;28;20387;-44
2024/03/23 08:12:29;;;;;;;;;;;22.70;51.50;;;;;;5079073;28;19912;-43
2024/03/23 08:14:55;;;;;;;;;;;22.80;51.60;;;;;;5079275;28;19928;-45
2024/03/23 08:17:21;;;;;;;;;;;22.80;51.60;;;;;;5079425;28;19931;-48
2024/03/23 08:19:47;;;;;;;;;;;22.70;51.60;;;;;;5078940;28;19913;-45
2024/03/23 08:22:13;;;;;;;;;;;22.70;51.60;;;;;;5077494;28;19908;-47
2024/03/23 08:24:39;;;;;;;;;;;22.70;51.60;;;;;;5074018;28;19927;-43
2024/03/23 08:27:05;;;;;;;;;;;22.70;51.60;;;;;;5079244;28;20059;-43
2024/03/23 08:29:31;;;;;;;;;;;22.70;51.60;;;;;;5078713;28;19908;-47
2024/03/23 08:31:57;;;;;;;;;;;22.60;51.50;;;;;;5072372;28;19916;-46
2024/03/23 08:34:23;;;;;;;;;;;22.70;51.70;;;;;;5079316;28;19920;-46
2024/03/23 08:36:49;;;;;;;;;;;22.70;51.60;;;;;;5082406;28;19915;-43
2024/03/23 08:39:14;;;;;;;;;;;22.70;51.60;;;;;;5070552;28;19934;-45
2024/03/23 08:41:43;;;;;;;;;;;22.70;51.60;;;;;;5067382;28;19913;-44
2024/03/23 08:44:09;;;;;;;;;;;22.70;51.60;;;;;;5079376;28;20388;-45
2024/03/23 08:46:35;;;;;;;;;;;22.70;51.60;;;;;;5071926;28;19955;-44
2024/03/23 08:49:00;;;;;;;;;;;22.70;51.60;;;;;;5065520;28;19912;-43
2024/03/23 08:51:26;;;;;;;;;;;22.70;51.60;;;;;;5065669;28;19947;-45
2024/03/23 08:53:52;;;;;;;;;;;22.70;51.60;;;;;;5068764;28;19912;-46
2024/03/23 08:56:19;;;;;;;;;;;22.70;51.70;;;;;;5069983;28;20011;-46
2024/03/23 08:58:45;;;;;;;;;;;22.80;51.70;;;;;;5065929;28;20014;-44
2024/03/23 09:01:14;;;;;;;;;;;22.80;51.70;;;;;;5064868;28;20014;-43
2024/03/23 09:03:40;;;;;;;;;;;22.70;51.70;;;;;;5066858;28;19912;-43
2024/03/23 09:06:09;;;;;;;;;;;22.70;51.70;;;;;;5065364;28;19919;-44
2024/03/23 09:08:36;;;;;;;;;;;22.70;51.70;;;;;;5066615;28;19912;-46
2024/03/23 09:11:08;;;;;;;;;;;22.70;51.60;;;;;;5079122;28;19935;-45
2024/03/23 09:13:34;;;;;;;;;;;22.60;52.20;;;;;;5065672;28;19952;-43
2024/03/23 09:16:00;;;;;;;;;;;22.70;51.80;;;;;;5072527;28;19923;-43
2024/03/23 09:18:26;;;;;;;;;;;22.70;52.30;;;;;;5065316;28;19916;-45
2024/03/23 09:20:54;;;;;;;;;;;22.80;51.70;;;;;;5072091;28;19919;-44
2024/03/23 09:23:22;;;;;;;;;;;22.70;51.70;;;;;;5084474;28;19912;-44
2024/03/23 09:25:48;;;;;;;;;;;22.70;51.70;;;;;;5065972;28;19912;-47
2024/03/23 09:28:14;;;;;;;;;;;22.70;51.70;;;;;;5065099;28;19920;-46
2024/03/23 09:30:43;;;;;;;;;;;22.70;51.80;;;;;;5072538;28;19912;-46
2024/03/23 09:33:09;;;;;;;;;;;22.70;51.70;;;;;;5072222;28;19913;-44
2024/03/23 09:35:41;;;;;;;;;;;22.70;51.70;;;;;;5067001;28;19928;-47
2024/03/23 09:38:08;;;;;;;;;;;22.70;51.70;;;;;;5076148;28;19916;-43
2024/03/23 09:40:34;;;;;;;;;;;22.70;51.70;;;;;;5066673;28;19909;-44
2024/03/23 09:43:01;;;;;;;;;;;22.70;51.70;;;;;;5071921;28;19920;-43
2024/03/23 09:45:27;;;;;;;;;;;22.70;51.70;;;;;;5063136;28;19948;-46
2024/03/23 09:47:53;;;;;;;;;;;22.70;51.80;;;;;;5065121;28;19908;-46
2024/03/23 09:50:19;;;;;;;;;;;22.70;51.80;;;;;;5078695;28;19979;-44
2024/03/23 09:52:47;;;;;;;;;;;22.70;51.80;;;;;;5075059;28;19917;-45
2024/03/23 09:55:14;;;;;;;;;;;22.60;51.70;;;;;;5072636;28;20258;-47
2024/03/23 09:57:40;;;;;;;;;;;22.70;51.80;;;;;;5066266;28;19915;-43
2024/03/23 10:00:07;;;;;;;;;;;22.70;51.80;;;;;;5065369;28;20389;-44
2024/03/23 10:02:33;;;;;;;;;;;22.70;51.70;;;;;;5072329;28;19940;-45
2024/03/23 10:04:59;;;;;;;;;;;22.70;51.80;;;;;;5076252;28;19919;-43
2024/03/23 10:07:25;;;;;;;;;;;22.70;51.80;;;;;;5075466;28;20273;-45
2024/03/23 10:09:51;;;;;;;;;;;22.70;51.80;;;;;;5079248;28;19913;-45
2024/03/23 10:12:17;;;;;;;;;;;22.70;51.80;;;;;;5072032;28;19923;-45
2024/03/23 10:14:43;;;;;;;;;;;22.70;51.90;;;;;;5066804;28;19917;-45
2024/03/23 10:17:24;;;;;;;;;;;22.70;51.80;;;;;;5081659;28;19919;-43
2024/03/23 10:19:51;;;;;;;;;;;22.70;51.80;;;;;;5066588;28;19920;-43
2024/03/23 10:22:18;;;;;;;;;;;22.70;51.80;;;;;;5074224;28;19916;-46
2024/03/23 10:24:44;;;;;;;;;;;22.70;51.80;;;;;;5072801;28;19916;-45
2024/03/23 10:27:10;;;;;;;;;;;22.70;51.80;;;;;;5076577;28;19915;-44
2024/03/23 10:29:36;;;;;;;;;;;22.70;51.80;;;;;;5062476;28;19976;-43
2024/03/23 10:32:11;;;;;;;;;;;22.70;51.80;;;;;;5074474;28;19972;-44
2024/03/23 10:34:37;;;;;;;;;;;22.70;51.80;;;;;;5072298;28;19939;-46
2024/03/23 10:37:03;;;;;;;;;;;22.70;51.80;;;;;;5071021;28;19913;-44
2024/03/23 10:39:33;;;;;;;;;;;22.60;51.80;;;;;;5075910;28;19979;-45
2024/03/23 10:41:59;;;;;;;;;;;22.70;51.80;;;;;;5067194;28;19912;-43
2024/03/23 10:44:26;;;;;;;;;;;22.70;51.80;;;;;;5081404;28;19963;-45
2024/03/23 10:46:58;;;;;;;;;;;22.80;51.80;;;;;;5076653;28;19913;-44
2024/03/23 10:49:26;;;;;;;;;;;22.70;51.80;;;;;;5070697;28;19935;-46
2024/03/23 10:51:52;;;;;;;;;;;22.70;51.80;;;;;;5064529;28;19913;-44
2024/03/23 10:54:18;;;;;;;;;;;22.70;51.80;;;;;;5073078;28;20373;-43
2024/03/23 10:56:44;;;;;;;;;;;22.70;51.80;;;;;;5071339;28;19943;-43
2024/03/23 10:59:10;;;;;;;;;;;22.70;51.80;;;;;;5067611;28;19913;-42
2024/03/23 11:01:36;;;;;;;;;;;22.70;51.80;;;;;;5063433;28;19913;-42
2024/03/23 11:04:02;;;;;;;;;;;22.70;51.80;;;;;;5076113;28;19920;-42
2024/03/23 11:06:35;;;;;;;;;;;22.70;51.80;;;;;;5070038;28;19908;-44
2024/03/23 11:09:01;;;;;;;;;;;22.70;51.80;;;;;;5063476;28;19912;-44
2024/03/23 11:11:28;;;;;;;;;;;22.70;51.80;;;;;;5076326;28;19917;-43
2024/03/23 11:13:54;;;;;;;;;;;22.70;51.80;;;;;;5064031;28;20655;-41
2024/03/23 11:16:23;;;;;;;;;;;22.70;51.90;;;;;;5070686;28;19935;-47
2024/03/23 11:18:49;;;;;;;;;;;22.70;51.80;;;;;;5085620;28;19909;-43
2024/03/23 11:21:34;;;;;;;;;;;22.60;51.80;;;;;;5074551;28;19919;-42
2024/03/23 11:24:19;;;;;;;;;;;22.70;51.90;;;;;;5070131;28;19920;-43
2024/03/23 11:26:45;;;;;;;;;;;22.70;51.90;;;;;;5072934;28;19988;-44
2024/03/23 11:29:11;;;;;;;;;;;22.70;51.80;;;;;;5074527;28;19912;-45
2024/03/23 11:31:38;;;;;;;;;;;22.70;51.90;;;;;;5074171;28;19916;-43
2024/03/23 11:34:06;;;;;;;;;;;22.70;51.90;;;;;;5077130;28;19912;-44
2024/03/23 11:36:32;;;;;;;;;;;22.70;51.90;;;;;;5077827;28;19930;-42
2024/03/23 11:38:58;;;;;;;;;;;22.60;51.80;;;;;;5066940;28;19908;-45
2024/03/23 11:41:25;;;;;;;;;;;22.60;51.80;;;;;;5080633;28;19913;-44
2024/03/23 11:43:50;;;;;;;;;;;22.60;51.90;;;;;;5071768;28;19920;-45
2024/03/23 11:46:22;;;;;;;;;;;22.70;51.90;;;;;;5073159;28;20007;-43
2024/03/23 11:48:51;;;;;;;;;;;22.70;51.90;;;;;;5071240;28;19908;-47
2024/03/23 11:51:17;;;;;;;;;;;22.70;51.90;;;;;;5066579;28;19923;-45
2024/03/23 11:53:43;;;;;;;;;;;22.70;51.90;;;;;;5075257;28;19999;-43
2024/03/23 11:56:09;;;;;;;;;;;22.70;51.90;;;;;;5068669;28;19954;-47
2024/03/23 11:58:35;;;;;;;;;;;22.70;52.50;;;;;;5071695;28;19912;-42
2024/03/23 12:01:04;;;;;;;;;;;22.60;51.90;;;;;;5069304;28;19912;-42
2024/03/23 12:03:32;;;;;;;;;;;22.60;51.90;;;;;;5063554;28;19912;-42
2024/03/23 12:05:59;;;;;;;;;;;22.70;51.90;;;;;;5066084;28;19908;-41
2024/03/23 12:08:25;;;;;;;;;;;22.70;52.00;;;;;;5066242;28;19908;-42
2024/03/23 12:11:11;;;;;;;;;;;22.70;51.90;;;;;;5079480;28;19913;-42
2024/03/23 12:13:37;;;;;;;;;;;22.70;51.90;;;;;;5075169;28;20503;-42
2024/03/23 12:16:10;;;;;;;;;;;22.70;52.00;;;;;;5077524;28;19917;-43
2024/03/23 12:18:37;;;;;;;;;;;22.70;52.00;;;;;;5076205;28;19912;-42
2024/03/23 12:21:03;;;;;;;;;;;22.70;52.00;;;;;;5075135;28;19976;-43
2024/03/23 12:23:29;;;;;;;;;;;22.60;51.90;;;;;;5083610;28;19912;-44
2024/03/23 12:25:54;;;;;;;;;;;22.60;52.00;;;;;;5079094;28;20370;-43
2024/03/23 12:28:20;;;;;;;;;;;22.70;52.00;;;;;;5077480;28;19913;-44
2024/03/23 12:30:46;;;;;;;;;;;22.70;52.00;;;;;;5075495;28;20193;-45
2024/03/23 12:33:12;;;;;;;;;;;22.70;51.90;;;;;;5079271;28;19912;-44
2024/03/23 12:35:38;;;;;;;;;;;22.70;51.90;;;;;;5073478;28;19921;-49
2024/03/23 12:38:04;;;;;;;;;;;22.70;52.00;;;;;;5076498;28;19915;-44
2024/03/23 12:40:30;;;;;;;;;;;22.60;52.00;;;;;;5079527;28;19920;-42
2024/03/23 12:42:58;;;;;;;;;;;22.60;52.00;;;;;;5076721;28;19920;-45
2024/03/23 12:45:24;;;;;;;;;;;22.60;52.00;;;;;;5070412;28;19983;-47
2024/03/23 12:47:53;;;;;;;;;;;22.60;52.10;;;;;;5073907;28;19947;-46
2024/03/23 12:50:19;;;;;;;;;;;22.70;52.00;;;;;;5073904;28;19912;-45
2024/03/23 12:52:45;;;;;;;;;;;22.70;52.00;;;;;;5082590;28;19916;-47
2024/03/23 12:55:11;;;;;;;;;;;22.70;52.00;;;;;;5076725;28;19934;-46
2024/03/23 12:57:37;;;;;;;;;;;22.70;52.00;;;;;;5076187;28;19916;-45
2024/03/23 13:00:04;;;;;;;;;;;22.70;52.00;;;;;;5077591;28;19919;-43
2024/03/23 13:02:29;;;;;;;;;;;22.60;52.00;;;;;;5083464;28;19948;-42
2024/03/23 13:04:55;;;;;;;;;;;22.60;52.00;;;;;;5082973;28;19915;-46
2024/03/23 13:07:22;;;;;;;;;;;22.60;52.00;;;;;;5080957;28;19955;-45
2024/03/23 13:09:50;;;;;;;;;;;22.70;52.00;;;;;;5073254;28;19913;-43
2024/03/23 13:12:15;;;;;;;;;;;22.70;52.00;;;;;;5079239;28;19936;-46
2024/03/23 13:14:42;;;;;;;;;;;22.70;52.00;;;;;;5082720;28;19928;-44
2024/03/23 13:17:08;;;;;;;;;;;22.70;52.00;;;;;;5078581;28;19909;-46
2024/03/23 13:19:34;;;;;;;;;;;22.70;52.00;;;;;;5073059;28;19912;-45
2024/03/23 13:22:00;;;;;;;;;;;22.70;52.00;;;;;;5085150;28;19919;-43
2024/03/23 13:24:26;;;;;;;;;;;22.60;52.00;;;;;;5077928;28;20436;-45
2024/03/23 13:26:52;;;;;;;;;;;22.60;52.00;;;;;;5082403;28;19912;-44
2024/03/23 13:29:18;;;;;;;;;;;22.60;52.00;;;;;;5076330;28;19916;-41
2024/03/23 13:31:45;;;;;;;;;;;22.70;52.00;;;;;;5072643;28;19912;-43
2024/03/23 13:34:11;;;;;;;;;;;22.70;51.90;;;;;;5077755;28;19920;-45
2024/03/23 13:36:36;;;;;;;;;;;22.70;51.90;;;;;;5075556;28;19979;-43
2024/03/23 13:39:10;;;;;;;;;;;22.70;52.00;;;;;;5075635;28;19999;-43
2024/03/23 13:41:37;;;;;;;;;;;22.70;52.00;;;;;;5074202;28;19912;-43
2024/03/23 13:44:03;;;;;;;;;;;22.70;52.00;;;;;;5069481;28;19924;-42
2024/03/23 13:46:29;;;;;;;;;;;22.60;52.00;;;;;;5065668;28;19980;-44
2024/03/23 13:48:55;;;;;;;;;;;22.70;52.00;;;;;;5065797;28;19935;-44
2024/03/23 13:51:25;;;;;;;;;;;22.70;52.00;;;;;;5072129;28;19919;-42
2024/03/23 13:53:51;;;;;;;;;;;22.70;51.90;;;;;;5071896;28;19936;-44
2024/03/23 13:56:17;;;;;;;;;;;22.70;51.90;;;;;;5069662;28;19920;-43
2024/03/23 13:58:46;;;;;;;;;;;22.70;52.00;;;;;;5065694;28;19915;-45
2024/03/23 14:01:13;;;;;;;;;;;22.70;51.90;;;;;;5064846;28;19912;-42
2024/03/23 14:03:39;;;;;;;;;;;22.70;52.00;;;;;;5072565;28;19912;-42
2024/03/23 14:06:07;;;;;;;;;;;22.70;51.90;;;;;;5068905;28;19955;-42
2024/03/23 14:08:35;;;;;;;;;;;22.70;51.90;;;;;;5074232;28;19912;-44
2024/03/23 14:11:04;;;;;;;;;;;22.70;52.00;;;;;;5071847;28;19913;-44
2024/03/23 14:13:30;;;;;;;;;;;22.70;51.90;;;;;;5071906;28;19932;-42